Time,TemperatureF,DewpointF,PressureIn,WindDirection,WindDirectionDegrees,WindSpeedMPH,WindSpeedGustMPH,Humidity,HourlyPrecipIn,Conditions,Clouds,dailyrainin,SoftwareType,DateUTC
2013-09-05 00:00:00,63.0,62.7,29.00,NE,45,0.0,0.0,99,0.00,,,0.00,Weather View 32 v70,2013-09-05 05:00:00,
2013-09-05 00:05:00,63.0,63.0,29.00,NE,45,0.0,0.0,100,0.00,,,0.00,Weather View 32 v70,2013-09-05 05:05:00,
2013-09-05 00:10:00,62.0,62.0,29.00,NE,45,0.0,0.0,100,0.00,,,0.00,Weather View 32 v70,2013-09-05 05:10:00,
2013-09-05 00:20:00,63.0,62.7,28.99,NE,45,0.0,0.0,99,0.00,,,0.00,Weather View 32 v70,2013-09-05 05:20:00,
2013-09-05 00:25:00,63.0,62.7,28.99,NE,45,0.0,0.0,99,0.00,,,0.00,Weather View 32 v70,2013-09-05 05:25:00,
2013-09-05 00:30:00,63.0,62.1,28.99,NE,45,0.0,0.0,97,0.00,,,0.00,Weather View 32 v70,2013-09-05 05:30:00,
2013-09-05 00:35:00,63.0,61.5,28.99,NE,45,0.0,0.0,95,0.00,,,0.00,Weather View 32 v70,2013-09-05 05:35:00,
2013-09-05 00:40:00,63.0,61.2,28.99,NE,45,0.0,0.0,94,0.00,,,0.00,Weather View 32 v70,2013-09-05 05:40:00,
2013-09-05 00:45:00,63.0,61.2,28.99,NE,45,0.0,0.0,94,0.00,,,0.00,Weather View 32 v70,2013-09-05 05:45:00,
2013-09-05 00:55:00,64.0,61.3,28.99,NE,45,0.0,0.0,91,0.00,,,0.00,Weather View 32 v70,2013-09-05 05:55:00,
2013-09-05 01:00:00,64.0,61.0,28.99,NE,45,0.0,0.0,90,0.00,,,0.00,Weather View 32 v70,2013-09-05 06:00:00,
2013-09-05 01:05:00,65.0,60.7,28.99,NE,45,0.0,0.0,86,0.00,,,0.00,Weather View 32 v70,2013-09-05 06:05:00,
2013-09-05 01:10:00,65.0,60.0,28.99,NE,45,0.0,0.0,84,0.00,,,0.00,Weather View 32 v70,2013-09-05 06:10:00,
2013-09-05 01:20:00,65.0,59.4,28.99,NE,45,0.0,0.0,82,0.00,,,0.00,Weather View 32 v70,2013-09-05 06:20:00,
2013-09-05 01:25:00,65.0,59.4,28.99,NE,45,0.0,0.0,82,0.00,,,0.00,Weather View 32 v70,2013-09-05 06:25:00,
2013-09-05 01:35:00,65.0,59.4,28.99,NE,45,0.0,0.0,82,0.00,,,0.00,Weather View 32 v70,2013-09-05 06:35:00,
2013-09-05 01:40:00,65.0,59.7,28.99,NE,45,0.0,0.0,83,0.00,,,0.00,Weather View 32 v70,2013-09-05 06:40:00,
2013-09-05 01:50:00,65.0,60.4,28.99,NE,45,0.0,0.0,85,0.00,,,0.00,Weather View 32 v70,2013-09-05 06:50:00,
2013-09-05 01:55:00,64.0,59.4,28.99,NE,45,0.0,0.0,85,0.00,,,0.00,Weather View 32 v70,2013-09-05 06:55:00,
2013-09-05 02:00:00,64.0,60.0,28.99,NE,45,0.0,0.0,87,0.00,,,0.00,Weather View 32 v70,2013-09-05 07:00:00,
2013-09-05 02:10:00,65.0,60.7,28.99,NE,45,0.0,0.0,86,0.00,,,0.00,Weather View 32 v70,2013-09-05 07:10:00,
2013-09-05 02:15:00,65.0,60.4,28.99,NE,45,0.0,0.0,85,0.00,,,0.00,Weather View 32 v70,2013-09-05 07:15:00,
2013-09-05 02:20:00,65.0,60.4,29.00,NE,45,0.0,0.0,85,0.00,,,0.00,Weather View 32 v70,2013-09-05 07:20:00,
2013-09-05 02:30:00,65.0,60.4,29.00,NE,45,0.0,0.0,85,0.00,,,0.00,Weather View 32 v70,2013-09-05 07:30:00,
2013-09-05 02:35:00,65.0,60.0,29.00,NE,45,0.0,0.0,84,0.00,,,0.00,Weather View 32 v70,2013-09-05 07:35:00,
2013-09-05 02:40:00,66.0,60.7,29.00,NE,45,0.0,0.0,83,0.00,,,0.00,Weather View 32 v70,2013-09-05 07:40:00,
2013-09-05 02:45:00,66.0,60.7,29.00,NE,45,0.0,0.0,83,0.00,,,0.00,Weather View 32 v70,2013-09-05 07:45:00,
2013-09-05 02:55:00,65.0,60.0,29.00,NE,45,0.0,0.0,84,0.00,,,0.00,Weather View 32 v70,2013-09-05 07:55:00,
2013-09-05 03:00:00,64.0,59.4,29.00,NE,45,0.0,0.0,85,0.00,,,0.00,Weather View 32 v70,2013-09-05 08:00:00,
2013-09-05 03:10:00,64.0,60.4,29.00,NE,45,0.0,0.0,88,0.00,,,0.00,Weather View 32 v70,2013-09-05 08:10:00,
2013-09-05 03:15:00,64.0,60.0,29.00,NE,45,0.0,0.0,87,0.00,,,0.00,Weather View 32 v70,2013-09-05 08:15:00,
2013-09-05 03:20:00,64.0,59.7,29.01,NE,45,0.0,0.0,86,0.00,,,0.00,Weather View 32 v70,2013-09-05 08:20:00,
2013-09-05 03:30:00,64.0,60.7,29.01,NE,45,0.0,0.0,89,0.00,,,0.00,Weather View 32 v70,2013-09-05 08:30:00,
2013-09-05 03:35:00,64.0,60.4,29.01,NE,45,0.0,0.0,88,0.00,,,0.00,Weather View 32 v70,2013-09-05 08:35:00,
2013-09-05 03:40:00,64.0,60.7,29.01,NE,45,0.0,0.0,89,0.00,,,0.00,Weather View 32 v70,2013-09-05 08:40:00,
2013-09-05 03:45:00,64.0,60.7,29.01,NE,45,0.0,0.0,89,0.00,,,0.00,Weather View 32 v70,2013-09-05 08:45:00,
2013-09-05 03:55:00,64.0,61.3,29.01,NE,45,0.0,0.0,91,0.00,,,0.00,Weather View 32 v70,2013-09-05 08:55:00,
2013-09-05 04:00:00,64.0,61.3,29.01,NE,45,0.0,0.0,91,0.00,,,0.00,Weather View 32 v70,2013-09-05 09:00:00,
2013-09-05 04:05:00,64.0,61.0,29.01,NE,45,0.0,0.0,90,0.00,,,0.00,Weather View 32 v70,2013-09-05 09:05:00,
2013-09-05 04:15:00,64.0,60.7,29.01,NE,45,0.0,0.0,89,0.00,,,0.00,Weather View 32 v70,2013-09-05 09:15:00,
2013-09-05 04:20:00,64.0,60.4,29.01,NE,45,0.0,0.0,88,0.00,,,0.00,Weather View 32 v70,2013-09-05 09:20:00,
2013-09-05 04:30:00,64.0,60.4,29.01,NE,45,0.0,0.0,88,0.00,,,0.00,Weather View 32 v70,2013-09-05 09:30:00,
2013-09-05 04:35:00,64.0,60.4,29.01,NE,45,0.0,0.0,88,0.00,,,0.00,Weather View 32 v70,2013-09-05 09:35:00,
2013-09-05 04:40:00,64.0,60.4,29.01,NE,45,0.0,0.0,88,0.00,,,0.00,Weather View 32 v70,2013-09-05 09:40:00,
2013-09-05 04:50:00,64.0,61.3,29.01,NE,45,0.0,0.0,91,0.00,,,0.00,Weather View 32 v70,2013-09-05 09:50:00,
2013-09-05 04:55:00,64.0,61.3,29.01,NE,45,0.0,0.0,91,0.00,,,0.00,Weather View 32 v70,2013-09-05 09:55:00,
2013-09-05 05:00:00,64.0,61.3,29.01,NE,45,0.0,0.0,91,0.00,,,0.00,Weather View 32 v70,2013-09-05 10:00:00,
2013-09-05 05:05:00,64.0,61.3,29.01,NE,45,0.0,0.0,91,0.00,,,0.00,Weather View 32 v70,2013-09-05 10:05:00,
2013-09-05 05:15:00,63.0,61.2,29.02,NE,45,0.0,0.0,94,0.00,,,0.00,Weather View 32 v70,2013-09-05 10:15:00,
2013-09-05 05:20:00,63.0,61.5,29.02,NE,45,0.0,0.0,95,0.00,,,0.00,Weather View 32 v70,2013-09-05 10:20:00,
2013-09-05 05:30:00,63.0,61.5,29.01,NE,45,0.0,0.0,95,0.00,,,0.00,Weather View 32 v70,2013-09-05 10:30:00,
2013-09-05 05:35:00,62.0,60.8,29.01,NE,45,0.0,0.0,96,0.00,,,0.00,Weather View 32 v70,2013-09-05 10:35:00,
2013-09-05 05:45:00,62.0,61.1,29.02,NE,45,0.0,0.0,97,0.00,,,0.00,Weather View 32 v70,2013-09-05 10:45:00,
2013-09-05 05:50:00,62.0,61.7,29.02,NE,45,0.0,0.0,99,0.00,,,0.00,Weather View 32 v70,2013-09-05 10:50:00,
2013-09-05 05:55:00,62.0,62.0,29.02,NE,45,0.0,0.0,100,0.00,,,0.00,Weather View 32 v70,2013-09-05 10:55:00,
2013-09-05 06:05:00,62.0,62.0,29.02,NE,45,0.0,0.0,100,0.00,,,0.00,Weather View 32 v70,2013-09-05 11:05:00,
2013-09-05 06:10:00,61.0,61.0,29.02,NE,45,0.0,0.0,100,0.00,,,0.00,Weather View 32 v70,2013-09-05 11:10:00,
2013-09-05 06:20:00,61.0,61.0,29.03,NE,45,0.0,0.0,100,0.00,,,0.00,Weather View 32 v70,2013-09-05 11:20:00,
2013-09-05 06:25:00,61.0,61.0,29.03,NE,45,0.0,0.0,100,0.00,,,0.00,Weather View 32 v70,2013-09-05 11:25:00,
2013-09-05 06:30:00,61.0,61.0,29.03,NE,45,0.0,0.0,100,0.00,,,0.00,Weather View 32 v70,2013-09-05 11:30:00,
2013-09-05 06:40:00,61.0,59.8,29.03,NE,45,0.0,0.0,96,0.00,,,0.00,Weather View 32 v70,2013-09-05 11:40:00,
2013-09-05 06:45:00,61.0,59.3,29.03,NE,45,0.0,0.0,94,0.00,,,0.00,Weather View 32 v70,2013-09-05 11:45:00,
2013-09-05 06:55:00,61.0,58.0,29.03,NE,45,0.0,0.0,90,0.00,,,0.00,Weather View 32 v70,2013-09-05 11:55:00,
2013-09-05 07:00:00,61.0,57.4,29.03,NE,45,0.0,0.0,88,0.00,,,0.00,Weather View 32 v70,2013-09-05 12:00:00,
2013-09-05 07:05:00,61.0,56.4,29.03,NE,45,0.0,0.0,85,0.00,,,0.00,Weather View 32 v70,2013-09-05 12:05:00,
2013-09-05 07:15:00,62.0,53.6,29.03,NE,45,0.0,0.0,74,0.00,,,0.00,Weather View 32 v70,2013-09-05 12:15:00,
2013-09-05 07:20:00,62.0,53.6,29.02,NE,45,0.0,0.0,74,0.00,,,0.00,Weather View 32 v70,2013-09-05 12:20:00,
2013-09-05 07:30:00,63.0,59.1,29.01,NE,45,0.0,0.0,87,0.00,,,0.00,Weather View 32 v70,2013-09-05 12:30:00,
2013-09-05 07:35:00,64.0,59.1,29.01,NE,45,0.0,0.0,84,0.00,,,0.00,Weather View 32 v70,2013-09-05 12:35:00,
2013-09-05 07:40:00,65.0,59.7,29.01,NE,45,0.0,0.0,83,0.00,,,0.00,Weather View 32 v70,2013-09-05 12:40:00,
2013-09-05 07:45:00,65.0,61.0,29.01,NE,45,0.0,0.0,87,0.00,,,0.00,Weather View 32 v70,2013-09-05 12:45:00,
2013-09-05 07:55:00,67.0,65.8,29.00,NE,45,0.0,0.0,96,0.00,,,0.00,Weather View 32 v70,2013-09-05 12:55:00,
2013-09-05 08:00:00,69.0,65.6,28.99,NE,45,0.0,0.0,89,0.00,,,0.00,Weather View 32 v70,2013-09-05 13:00:00,
2013-09-05 08:05:00,70.0,64.2,28.99,NE,45,0.0,0.0,82,0.00,,,0.00,Weather View 32 v70,2013-09-05 13:05:00,
2013-09-05 08:15:00,71.0,63.8,28.98,NE,45,0.0,0.0,78,0.00,,,0.00,Weather View 32 v70,2013-09-05 13:15:00,
2013-09-05 08:25:00,73.0,63.4,28.97,NE,45,0.0,0.0,72,0.00,,,0.00,Weather View 32 v70,2013-09-05 13:25:00,
2013-09-05 08:30:00,74.0,64.4,28.97,NE,45,0.0,0.0,72,0.00,,,0.00,Weather View 32 v70,2013-09-05 13:30:00,
2013-09-05 08:35:00,74.0,63.1,28.97,NE,45,0.0,0.0,69,0.00,,,0.00,Weather View 32 v70,2013-09-05 13:35:00,
2013-09-05 08:45:00,76.0,63.8,28.97,NE,45,0.0,0.0,66,0.00,,,0.00,Weather View 32 v70,2013-09-05 13:45:00,
2013-09-05 08:50:00,77.0,63.8,28.97,NE,45,0.0,0.0,64,0.00,,,0.00,Weather View 32 v70,2013-09-05 13:50:00,
2013-09-05 09:00:00,79.0,63.4,28.97,NE,45,0.0,0.0,59,0.00,,,0.00,Weather View 32 v70,2013-09-05 14:00:00,
2013-09-05 09:07:00,79.0,62.9,28.97,NNW,337,0.0,0.0,58,0.00,,,0.00,Weather View 32 v70,2013-09-05 14:07:00,
2013-09-05 09:15:00,79.0,61.4,28.97,SW,225,4.0,7.0,55,0.00,,,0.00,Weather View 32 v70,2013-09-05 14:15:00,
2013-09-05 09:25:00,79.0,62.4,28.97,NW,315,0.0,7.0,57,0.00,,,0.00,Weather View 32 v70,2013-09-05 14:25:00,
2013-09-05 09:30:00,80.0,62.8,28.97,NNE,22,0.0,7.0,56,0.00,,,0.00,Weather View 32 v70,2013-09-05 14:30:00,
2013-09-05 09:35:00,80.0,61.8,28.97,NW,315,4.0,7.0,54,0.00,,,0.00,Weather View 32 v70,2013-09-05 14:35:00,
2013-09-05 09:45:00,81.0,62.2,28.97,NNW,337,4.0,7.0,53,0.00,,,0.00,Weather View 32 v70,2013-09-05 14:45:00,
2013-09-05 09:50:00,81.0,62.7,28.97,NE,45,4.0,7.0,54,0.00,,,0.00,Weather View 32 v70,2013-09-05 14:50:00,
2013-09-05 09:55:00,82.0,63.1,28.97,NNE,22,0.0,7.0,53,0.00,,,0.00,Weather View 32 v70,2013-09-05 14:55:00,
2013-09-05 10:05:00,84.0,62.7,28.96,North,360,2.0,7.0,49,0.00,,,0.00,Weather View 32 v70,2013-09-05 15:05:00,
2013-09-05 10:10:00,84.0,63.3,28.96,North,360,0.0,7.0,50,0.00,,,0.00,Weather View 32 v70,2013-09-05 15:10:00,
2013-09-05 10:15:00,84.0,61.5,28.96,ENE,67,3.0,7.0,47,0.00,,,0.00,Weather View 32 v70,2013-09-05 15:15:00,
2013-09-05 10:20:00,85.0,64.2,28.96,ENE,67,4.0,6.0,50,0.00,,,0.00,Weather View 32 v70,2013-09-05 15:20:00,
2013-09-05 10:30:00,84.0,61.5,28.97,NNW,337,0.0,5.0,47,0.00,,,0.00,Weather View 32 v70,2013-09-05 15:30:00,
2013-09-05 10:35:00,85.0,60.6,28.97,NE,45,0.0,5.0,44,0.00,,,0.00,Weather View 32 v70,2013-09-05 15:35:00,
2013-09-05 10:40:00,86.0,62.7,28.95,North,360,4.0,5.0,46,0.00,,,0.00,Weather View 32 v70,2013-09-05 15:40:00,
2013-09-05 10:50:00,86.0,62.7,28.95,ENE,67,0.0,5.0,46,0.00,,,0.00,Weather View 32 v70,2013-09-05 15:50:00,
2013-09-05 10:55:00,86.0,61.5,28.95,ENE,67,1.0,5.0,44,0.00,,,0.00,Weather View 32 v70,2013-09-05 15:55:00,
2013-09-05 11:00:00,87.0,61.0,28.96,NE,45,3.0,5.0,42,0.00,,,0.00,Weather View 32 v70,2013-09-05 16:00:00,
2013-09-05 11:08:00,88.0,60.6,28.96,NE,45,0.0,5.0,40,0.00,,,0.00,Weather View 32 v70,2013-09-05 16:08:00,
2013-09-05 11:15:00,87.0,59.7,28.95,NE,45,1.0,5.0,40,0.00,,,0.00,Weather View 32 v70,2013-09-05 16:15:00,
2013-09-05 11:20:00,88.0,59.1,28.95,South,180,0.0,5.0,38,0.00,,,0.00,Weather View 32 v70,2013-09-05 16:20:00,
2013-09-05 11:30:00,88.0,60.6,28.95,NE,45,2.0,5.0,40,0.00,,,0.00,Weather View 32 v70,2013-09-05 16:30:00,
2013-09-05 11:35:00,88.0,59.1,28.95,NE,45,0.0,5.0,38,0.00,,,0.00,Weather View 32 v70,2013-09-05 16:35:00,
2013-09-05 11:40:00,88.0,59.1,28.95,NE,45,4.0,6.0,38,0.00,,,0.00,Weather View 32 v70,2013-09-05 16:40:00,
2013-09-05 11:50:00,88.0,60.6,28.96,NNE,22,5.0,7.0,40,0.00,,,0.00,Weather View 32 v70,2013-09-05 16:50:00,
2013-09-05 11:55:00,87.0,61.0,28.96,NNE,22,0.0,7.0,42,0.00,,,0.00,Weather View 32 v70,2013-09-05 16:55:00,
2013-09-05 12:00:00,87.0,61.7,28.97,ENE,67,3.0,7.0,43,0.00,,,0.00,Weather View 32 v70,2013-09-05 17:00:00,
2013-09-05 12:05:00,86.0,61.5,28.97,NNE,22,3.0,7.0,44,0.00,,,0.00,Weather View 32 v70,2013-09-05 17:05:00,
2013-09-05 12:15:00,87.0,63.0,28.97,North,360,2.0,7.0,45,0.00,,,0.00,Weather View 32 v70,2013-09-05 17:15:00,
2013-09-05 12:20:00,88.0,64.5,28.97,NE,45,2.0,7.0,46,0.00,,,0.00,Weather View 32 v70,2013-09-05 17:20:00,
2013-09-05 12:25:00,87.0,64.3,28.97,East,90,8.0,8.0,47,0.00,,,0.00,Weather View 32 v70,2013-09-05 17:25:00,
2013-09-05 12:35:00,88.0,63.9,28.96,NNE,22,3.0,8.0,45,0.00,,,0.00,Weather View 32 v70,2013-09-05 17:35:00,
2013-09-05 12:40:00,88.0,61.9,28.96,ENE,67,4.0,8.0,42,0.00,,,0.00,Weather View 32 v70,2013-09-05 17:40:00,
2013-09-05 12:45:00,88.0,63.3,28.96,NE,45,3.0,8.0,44,0.00,,,0.00,Weather View 32 v70,2013-09-05 17:45:00,
2013-09-05 12:50:00,87.0,64.9,28.96,SSW,202,4.0,9.0,48,0.00,,,0.00,Weather View 32 v70,2013-09-05 17:50:00,
2013-09-05 13:00:00,88.0,63.3,28.95,ENE,67,6.0,9.0,44,0.00,,,0.00,Weather View 32 v70,2013-09-05 18:00:00,
2013-09-05 13:05:00,87.0,63.6,28.95,NE,45,8.0,10.0,46,0.00,,,0.00,Weather View 32 v70,2013-09-05 18:05:00,
2013-09-05 13:10:00,86.0,63.9,28.95,East,90,5.0,10.0,48,0.00,,,0.00,Weather View 32 v70,2013-09-05 18:10:00,
2013-09-05 13:15:00,86.0,64.5,28.95,East,90,0.0,10.0,49,0.00,,,0.00,Weather View 32 v70,2013-09-05 18:15:00,
2013-09-05 13:20:00,86.0,63.9,28.96,East,90,0.0,10.0,48,0.00,,,0.00,Weather View 32 v70,2013-09-05 18:20:00,
2013-09-05 13:30:00,87.0,64.3,28.95,ENE,67,3.0,10.0,47,0.00,,,0.00,Weather View 32 v70,2013-09-05 18:30:00,
2013-09-05 13:35:00,88.0,65.2,28.95,SSE,157,0.0,10.0,47,0.00,,,0.00,Weather View 32 v70,2013-09-05 18:35:00,
2013-09-05 13:40:00,88.0,63.9,28.95,East,90,4.0,10.0,45,0.00,,,0.00,Weather View 32 v70,2013-09-05 18:40:00,
2013-09-05 13:50:00,87.0,64.3,28.94,SW,225,0.0,10.0,47,0.00,,,0.00,Weather View 32 v70,2013-09-05 18:50:00,
2013-09-05 13:55:00,86.0,64.5,28.94,East,90,6.0,10.0,49,0.00,,,0.00,Weather View 32 v70,2013-09-05 18:55:00,
2013-09-05 14:00:00,87.0,65.5,28.95,NE,45,3.0,10.0,49,0.00,,,0.00,Weather View 32 v70,2013-09-05 19:00:00,
2013-09-05 14:05:00,87.0,64.3,28.95,East,90,5.0,9.0,47,0.00,,,0.00,Weather View 32 v70,2013-09-05 19:05:00,
2013-09-05 14:10:00,88.0,64.5,28.95,East,90,3.0,9.0,46,0.00,,,0.00,Weather View 32 v70,2013-09-05 19:10:00,
2013-09-05 14:20:00,90.0,65.1,28.93,NE,45,3.0,9.0,44,0.00,,,0.00,Weather View 32 v70,2013-09-05 19:20:00,
2013-09-05 14:25:00,89.0,65.4,28.93,ENE,67,3.0,9.0,46,0.00,,,0.00,Weather View 32 v70,2013-09-05 19:25:00,
2013-09-05 14:35:00,89.0,64.8,28.93,North,360,3.0,9.0,45,0.00,,,0.00,Weather View 32 v70,2013-09-05 19:35:00,
2013-09-05 14:40:00,90.0,65.1,28.93,SSW,202,1.0,9.0,44,0.00,,,0.00,Weather View 32 v70,2013-09-05 19:40:00,
2013-09-05 14:45:00,88.0,65.2,28.93,NNE,22,4.0,10.0,47,0.00,,,0.00,Weather View 32 v70,2013-09-05 19:45:00,
2013-09-05 14:55:00,88.0,65.2,28.93,East,90,0.0,10.0,47,0.00,,,0.00,Weather View 32 v70,2013-09-05 19:55:00,
2013-09-05 15:00:00,87.0,64.9,28.93,ENE,67,5.0,10.0,48,0.00,,,0.00,Weather View 32 v70,2013-09-05 20:00:00,
2013-09-05 15:05:00,88.0,65.2,28.93,ENE,67,4.0,10.0,47,0.00,,,0.00,Weather View 32 v70,2013-09-05 20:05:00,
2013-09-05 15:11:00,89.0,65.4,28.92,NNE,22,1.0,10.0,46,0.00,,,0.00,Weather View 32 v70,2013-09-05 20:11:00,
2013-09-05 15:20:00,87.0,65.5,28.91,ENE,67,3.0,10.0,49,0.00,,,0.00,Weather View 32 v70,2013-09-05 20:20:00,
2013-09-05 15:25:00,88.0,64.5,28.91,ENE,67,4.0,10.0,46,0.00,,,0.00,Weather View 32 v70,2013-09-05 20:25:00,
2013-09-05 15:30:00,89.0,66.1,28.91,ENE,67,3.0,10.0,47,0.00,,,0.00,Weather View 32 v70,2013-09-05 20:30:00,
2013-09-05 15:35:00,87.0,64.9,28.91,NE,45,3.0,10.0,48,0.00,,,0.00,Weather View 32 v70,2013-09-05 20:35:00,
2013-09-05 15:45:00,86.0,65.7,28.91,ENE,67,4.0,10.0,51,0.00,,,0.00,Weather View 32 v70,2013-09-05 20:45:00,
2013-09-05 15:50:00,87.0,64.9,28.92,NNW,337,1.0,10.0,48,0.00,,,0.00,Weather View 32 v70,2013-09-05 20:50:00,
2013-09-05 15:55:00,88.0,65.2,28.92,ENE,67,3.0,10.0,47,0.00,,,0.00,Weather View 32 v70,2013-09-05 20:55:00,
2013-09-05 16:00:00,88.0,65.2,28.91,East,90,3.0,10.0,47,0.00,,,0.00,Weather View 32 v70,2013-09-05 21:00:00,
2013-09-05 16:10:00,88.0,65.8,28.91,ENE,67,3.0,10.0,48,0.00,,,0.00,Weather View 32 v70,2013-09-05 21:10:00,
2013-09-05 16:15:00,87.0,65.5,28.91,NE,45,1.0,10.0,49,0.00,,,0.00,Weather View 32 v70,2013-09-05 21:15:00,
2013-09-05 16:20:00,88.0,66.4,28.92,NE,45,0.0,9.0,49,0.00,,,0.00,Weather View 32 v70,2013-09-05 21:20:00,
2013-09-05 16:30:00,87.0,64.9,28.91,East,90,8.0,9.0,48,0.00,,,0.00,Weather View 32 v70,2013-09-05 21:30:00,
2013-09-05 16:35:00,87.0,66.0,28.91,NE,45,2.0,9.0,50,0.00,,,0.00,Weather View 32 v70,2013-09-05 21:35:00,
2013-09-05 16:40:00,86.0,65.1,28.91,ENE,67,1.0,9.0,50,0.00,,,0.00,Weather View 32 v70,2013-09-05 21:40:00,
2013-09-05 16:45:00,87.0,65.5,28.91,NE,45,0.0,9.0,49,0.00,,,0.00,Weather View 32 v70,2013-09-05 21:45:00,
2013-09-05 16:55:00,87.0,64.3,28.91,East,90,2.0,9.0,47,0.00,,,0.00,Weather View 32 v70,2013-09-05 21:55:00,
2013-09-05 17:00:00,88.0,65.2,28.91,NE,45,0.0,9.0,47,0.00,,,0.00,Weather View 32 v70,2013-09-05 22:00:00,
2013-09-05 17:05:00,88.0,65.2,28.91,ENE,67,1.0,9.0,47,0.00,,,0.00,Weather View 32 v70,2013-09-05 22:05:00,
2013-09-05 17:10:00,87.0,64.3,28.91,ENE,67,4.0,9.0,47,0.00,,,0.00,Weather View 32 v70,2013-09-05 22:10:00,
2013-09-05 17:20:00,88.0,65.2,28.91,ENE,67,0.0,9.0,47,0.00,,,0.00,Weather View 32 v70,2013-09-05 22:20:00,
2013-09-05 17:25:00,88.0,65.8,28.91,NNE,22,0.0,9.0,48,0.00,,,0.00,Weather View 32 v70,2013-09-05 22:25:00,
2013-09-05 17:30:00,88.0,65.2,28.91,NE,45,3.0,9.0,47,0.00,,,0.00,Weather View 32 v70,2013-09-05 22:30:00,
2013-09-05 17:40:00,89.0,65.4,28.91,NE,45,0.0,9.0,46,0.00,,,0.00,Weather View 32 v70,2013-09-05 22:40:00,
2013-09-05 17:45:00,89.0,65.4,28.91,North,360,4.0,9.0,46,0.00,,,0.00,Weather View 32 v70,2013-09-05 22:45:00,
2013-09-05 17:55:00,88.0,66.9,28.90,East,90,4.0,9.0,50,0.00,,,0.00,Weather View 32 v70,2013-09-05 22:55:00,
2013-09-05 18:00:00,86.0,66.3,28.91,East,90,4.0,8.0,52,0.00,,,0.00,Weather View 32 v70,2013-09-05 23:00:00,
2013-09-05 18:05:00,86.0,67.3,28.91,ENE,67,4.0,8.0,54,0.00,,,0.00,Weather View 32 v70,2013-09-05 23:05:00,
2013-09-05 18:10:00,86.0,67.3,28.92,NE,45,3.0,8.0,54,0.00,,,0.00,Weather View 32 v70,2013-09-05 23:10:00,
2013-09-05 18:20:00,85.0,68.5,28.93,ENE,67,0.0,8.0,58,0.00,,,0.00,Weather View 32 v70,2013-09-05 23:20:00,
2013-09-05 18:25:00,84.0,69.0,28.93,ENE,67,0.0,8.0,61,0.00,,,0.00,Weather View 32 v70,2013-09-05 23:25:00,
2013-09-05 18:30:00,83.0,68.1,28.93,ENE,67,2.0,8.0,61,0.00,,,0.00,Weather View 32 v70,2013-09-05 23:30:00,
2013-09-05 18:35:00,83.0,68.1,28.93,ENE,67,2.0,8.0,61,0.00,,,0.00,Weather View 32 v70,2013-09-05 23:35:00,
2013-09-05 18:45:00,82.0,68.1,28.94,NE,45,1.0,8.0,63,0.00,,,0.00,Weather View 32 v70,2013-09-05 23:45:00,
2013-09-05 18:50:00,81.0,68.1,28.94,NE,45,0.0,8.0,65,0.00,,,0.00,Weather View 32 v70,2013-09-05 23:50:00,
2013-09-05 18:55:00,80.0,68.4,28.94,NE,45,0.0,8.0,68,0.00,,,0.00,Weather View 32 v70,2013-09-05 23:55:00,
2013-09-05 19:00:00,80.0,69.3,28.95,NE,45,1.0,6.0,70,0.00,,,0.00,Weather View 32 v70,2013-09-06 00:00:00,
2013-09-05 19:10:00,79.0,68.8,28.95,NE,45,3.0,6.0,71,0.00,,,0.00,Weather View 32 v70,2013-09-06 00:10:00,
2013-09-05 19:15:00,79.0,69.2,28.95,ENE,67,3.0,5.0,72,0.00,,,0.00,Weather View 32 v70,2013-09-06 00:15:00,
2013-09-05 19:20:00,78.0,68.6,28.95,East,90,2.0,5.0,73,0.00,,,0.00,Weather View 32 v70,2013-09-06 00:20:00,
2013-09-05 19:25:00,78.0,69.4,28.95,East,90,2.0,5.0,75,0.00,,,0.00,Weather View 32 v70,2013-09-06 00:25:00,
2013-09-05 19:35:00,78.0,69.8,28.96,East,90,1.0,5.0,76,0.00,,,0.00,Weather View 32 v70,2013-09-06 00:35:00,
2013-09-05 19:40:00,77.0,69.6,28.97,ENE,67,1.0,5.0,78,0.00,,,0.00,Weather View 32 v70,2013-09-06 00:40:00,
2013-09-05 19:45:00,77.0,69.6,28.97,NNE,22,3.0,5.0,78,0.00,,,0.00,Weather View 32 v70,2013-09-06 00:45:00,
2013-09-05 19:50:00,77.0,70.0,28.97,East,90,1.0,5.0,79,0.00,,,0.00,Weather View 32 v70,2013-09-06 00:50:00,
2013-09-05 20:00:00,77.0,70.3,28.97,ENE,67,4.0,5.0,80,0.00,,,0.00,Weather View 32 v70,2013-09-06 01:00:00,
2013-09-05 20:05:00,77.0,70.7,28.97,ENE,67,1.0,5.0,81,0.00,,,0.00,Weather View 32 v70,2013-09-06 01:05:00,
2013-09-05 20:10:00,76.0,69.7,28.97,East,90,1.0,6.0,81,0.00,,,0.00,Weather View 32 v70,2013-09-06 01:10:00,
2013-09-05 20:15:00,76.0,70.1,28.97,ENE,67,2.0,6.0,82,0.00,,,0.00,Weather View 32 v70,2013-09-06 01:15:00,
2013-09-05 20:25:00,76.0,71.1,28.97,ENE,67,3.0,6.0,85,0.00,,,0.00,Weather View 32 v70,2013-09-06 01:25:00,
2013-09-05 20:30:00,76.0,70.8,28.98,ENE,67,4.0,6.0,84,0.00,,,0.00,Weather View 32 v70,2013-09-06 01:30:00,
2013-09-05 20:35:00,76.0,71.1,28.98,East,90,5.0,8.0,85,0.00,,,0.00,Weather View 32 v70,2013-09-06 01:35:00,
2013-09-05 20:40:00,75.0,70.5,28.99,NE,45,5.0,9.0,86,0.00,,,0.00,Weather View 32 v70,2013-09-06 01:40:00,
2013-09-05 20:50:00,75.0,71.5,28.99,East,90,3.0,9.0,89,0.00,,,0.00,Weather View 32 v70,2013-09-06 01:50:00,
2013-09-05 20:55:00,74.0,71.2,28.99,ENE,67,4.0,9.0,91,0.00,,,0.00,Weather View 32 v70,2013-09-06 01:55:00,
2013-09-05 21:00:00,74.0,71.2,28.99,East,90,4.0,9.0,91,0.00,,,0.00,Weather View 32 v70,2013-09-06 02:00:00,
2013-09-05 21:05:00,74.0,71.5,28.99,ENE,67,3.0,9.0,92,0.00,,,0.00,Weather View 32 v70,2013-09-06 02:05:00,
2013-09-05 21:14:00,74.0,71.5,29.00,ENE,67,3.0,9.0,92,0.00,,,0.00,Weather View 32 v70,2013-09-06 02:14:00,
2013-09-05 21:20:00,73.0,71.2,29.00,NE,45,2.0,9.0,94,0.00,,,0.00,Weather View 32 v70,2013-09-06 02:20:00,
2013-09-05 21:25:00,73.0,71.2,29.00,East,90,6.0,9.0,94,0.00,,,0.00,Weather View 32 v70,2013-09-06 02:25:00,
2013-09-05 21:30:00,73.0,71.8,29.01,East,90,4.0,9.0,96,0.00,,,0.00,Weather View 32 v70,2013-09-06 02:30:00,
2013-09-05 21:40:00,72.0,71.1,29.01,East,90,4.0,9.0,97,0.00,,,0.00,Weather View 32 v70,2013-09-06 02:40:00,
2013-09-05 21:45:00,72.0,71.7,29.01,ENE,67,5.0,9.0,99,0.00,,,0.00,Weather View 32 v70,2013-09-06 02:45:00,
2013-09-05 21:50:00,72.0,71.7,29.01,East,90,6.0,9.0,99,0.00,,,0.00,Weather View 32 v70,2013-09-06 02:50:00,
2013-09-05 22:00:00,71.0,71.0,29.01,East,90,4.0,9.0,100,0.00,,,0.00,Weather View 32 v70,2013-09-06 03:00:00,
2013-09-05 22:05:00,71.0,71.0,29.01,East,90,3.0,9.0,100,0.00,,,0.00,Weather View 32 v70,2013-09-06 03:05:00,
2013-09-05 22:10:00,71.0,71.0,29.02,East,90,4.0,9.0,100,0.00,,,0.00,Weather View 32 v70,2013-09-06 03:10:00,
2013-09-05 22:15:00,71.0,71.0,29.02,East,90,6.0,8.0,100,0.00,,,0.00,Weather View 32 v70,2013-09-06 03:15:00,
2013-09-05 22:25:00,70.0,70.0,29.02,ENE,67,4.0,8.0,100,0.00,,,0.00,Weather View 32 v70,2013-09-06 03:25:00,
2013-09-05 22:30:00,70.0,70.0,29.02,East,90,3.0,8.0,100,0.00,,,0.00,Weather View 32 v70,2013-09-06 03:30:00,
2013-09-05 22:35:00,70.0,70.0,29.02,NNE,22,4.0,8.0,100,0.00,,,0.00,Weather View 32 v70,2013-09-06 03:35:00,
2013-09-05 22:40:00,70.0,70.0,29.02,East,90,5.0,8.0,100,0.00,,,0.00,Weather View 32 v70,2013-09-06 03:40:00,
2013-09-05 22:45:00,69.0,69.0,29.02,NE,45,3.0,8.0,100,0.00,,,0.00,Weather View 32 v70,2013-09-06 03:45:00,
2013-09-05 22:55:00,69.0,69.0,29.02,ENE,67,2.0,8.0,100,0.00,,,0.00,Weather View 32 v70,2013-09-06 03:55:00,
2013-09-05 23:00:00,69.0,69.0,29.03,East,90,4.0,8.0,100,0.00,,,0.00,Weather View 32 v70,2013-09-06 04:00:00,
2013-09-05 23:05:00,69.0,69.0,29.03,NNE,22,4.0,8.0,100,0.00,,,0.00,Weather View 32 v70,2013-09-06 04:05:00,
2013-09-05 23:10:00,69.0,68.7,29.03,NE,45,2.0,8.0,99,0.00,,,0.00,Weather View 32 v70,2013-09-06 04:10:00,
2013-09-05 23:15:00,69.0,68.7,29.03,ENE,67,4.0,8.0,99,0.00,,,0.00,Weather View 32 v70,2013-09-06 04:15:00,
2013-09-05 23:20:00,69.0,68.7,29.03,East,90,2.0,8.0,99,0.00,,,0.00,Weather View 32 v70,2013-09-06 04:20:00,
2013-09-05 23:25:00,68.0,67.7,29.03,East,90,4.0,8.0,99,0.00,,,0.00,Weather View 32 v70,2013-09-06 04:25:00,
2013-09-05 23:30:00,68.0,67.4,29.03,East,90,2.0,8.0,98,0.00,,,0.00,Weather View 32 v70,2013-09-06 04:30:00,
2013-09-05 23:40:00,68.0,67.1,29.03,East,90,3.0,8.0,97,0.00,,,0.00,Weather View 32 v70,2013-09-06 04:40:00,
2013-09-05 23:45:00,68.0,67.1,29.03,East,90,5.0,8.0,97,0.00,,,0.00,Weather View 32 v70,2013-09-06 04:45:00,
2013-09-05 23:50:00,68.0,67.4,29.03,East,90,4.0,8.0,98,0.00,,,0.00,Weather View 32 v70,2013-09-06 04:50:00,